Time;durP1;ratioP1;P1;durP2;ratioP2;P2;SDS_P1;SDS_P2;PMS_P1;PMS_P2;Temp;Humidity;BMP_temperature;BMP_pressure;BME280_temperature;BME280_humidity;BME280_pressure;Samples;Min_cycle;Max_cycle;Signal;HPM_P1;HPM_P2
2023/02/25 00:00:17;;;;;;;16.15;4.50;;;13.70;96.70;;;;;;5125719;27;20177;-54
2023/02/25 00:02:48;;;;;;;10.63;4.63;;;;;;;;;;5120131;27;20059;-53
2023/02/25 00:05:15;;;;;;;18.10;7.30;;;13.80;96.30;;;;;;5124781;27;20019;-54
2023/02/25 00:07:41;;;;;;;24.30;7.25;;;13.80;96.40;;;;;;5126307;27;20394;-54
2023/02/25 00:10:10;;;;;;;24.75;9.38;;;14.10;95.90;;;;;;5118940;27;20019;-55
2023/02/25 00:12:37;;;;;;;29.27;11.23;;;14.10;96.10;;;;;;5106549;27;20059;-53
2023/02/25 00:15:04;;;;;;;20.70;8.95;;;14.10;96.00;;;;;;5123270;27;20028;-52
2023/02/25 00:17:31;;;;;;;17.52;6.55;;;14.30;95.40;;;;;;5125711;27;20367;-50
2023/02/25 00:19:56;;;;;;;17.73;4.80;;;14.10;96.00;;;;;;5126384;27;20041;-52
2023/02/25 00:22:23;;;;;;;17.52;4.50;;;14.10;95.90;;;;;;5124096;27;20110;-51
2023/02/25 00:24:53;;;;;;;14.63;5.97;;;13.90;96.50;;;;;;5122848;27;20416;-53
2023/02/25 00:27:20;;;;;;;13.65;5.70;;;14.50;96.20;;;;;;5123820;27;20034;-51
2023/02/25 00:29:46;;;;;;;17.23;5.80;;;14.20;95.30;;;;;;5123706;27;20083;-51
2023/02/25 00:32:12;;;;;;;24.33;11.30;;;14.20;96.20;;;;;;5122443;27;20027;-51
2023/02/25 00:34:38;;;;;;;46.00;22.27;;;13.80;95.10;;;;;;5124274;27;20523;-52
2023/02/25 00:37:04;;;;;;;16.50;6.38;;;14.10;96.40;;;;;;5098915;27;20032;-53
2023/02/25 00:39:41;;;;;;;18.55;6.50;;;14.00;95.10;;;;;;5119117;27;20079;-53
2023/02/25 00:42:13;;;;;;;11.63;3.33;;;14.10;95.40;;;;;;5122195;27;20035;-53
2023/02/25 00:44:39;;;;;;;7.80;3.08;;;13.60;97.00;;;;;;5121177;27;20031;-51
2023/02/25 00:47:05;;;;;;;14.65;5.68;;;14.00;96.20;;;;;;5115515;27;20043;-53
2023/02/25 00:49:32;;;;;;;15.07;4.88;;;13.90;97.00;;;;;;5116219;27;20524;-53
2023/02/25 00:51:58;;;;;;;12.10;5.18;;;13.80;96.00;;;;;;5117111;27;21038;-52
2023/02/25 00:54:24;;;;;;;11.30;4.38;;;13.90;95.80;;;;;;5104632;27;20039;-53
2023/02/25 00:56:50;;;;;;;19.25;4.63;;;13.80;96.00;;;;;;5120930;27;20039;-53
2023/02/25 00:59:16;;;;;;;16.15;4.57;;;13.90;95.60;;;;;;5116998;27;20038;-52
2023/02/25 01:01:42;;;;;;;18.52;5.45;;;13.80;95.50;;;;;;5101735;27;20059;-54
2023/02/25 01:04:08;;;;;;;14.50;5.75;;;13.80;95.70;;;;;;5120694;27;20490;-52
2023/02/25 01:06:37;;;;;;;11.60;4.63;;;13.70;96.10;;;;;;5121096;27;20402;-51
2023/02/25 01:09:05;;;;;;;20.02;5.93;;;13.70;96.30;;;;;;5118587;27;20107;-53
2023/02/25 01:11:33;;;;;;;15.38;6.38;;;13.80;96.20;;;;;;5124579;27;20023;-51
2023/02/25 01:14:05;;;;;;;16.30;5.10;;;13.80;96.00;;;;;;5127493;27;20028;-53
2023/02/25 01:16:32;;;;;;;18.60;6.13;;;13.80;95.60;;;;;;5125454;27;20049;-51
2023/02/25 01:19:02;;;;;;;17.58;5.88;;;13.80;95.90;;;;;;5124999;27;20429;-53
2023/02/25 01:21:30;;;;;;;13.00;4.47;;;13.80;96.10;;;;;;5122645;27;20035;-54
2023/02/25 01:24:04;;;;;;;14.45;4.50;;;13.70;95.70;;;;;;5117663;27;20024;-51
2023/02/25 01:26:32;;;;;;;9.65;3.58;;;13.70;96.00;;;;;;5116390;27;20049;-54
2023/02/25 01:28:58;;;;;;;13.18;4.65;;;13.10;96.80;;;;;;5118645;27;20098;-52
2023/02/25 01:31:27;;;;;;;7.05;3.78;;;13.20;96.90;;;;;;5121955;27;20127;-53
2023/02/25 01:33:59;;;;;;;12.82;4.57;;;13.00;97.20;;;;;;5121229;27;20458;-53
2023/02/25 01:36:26;;;;;;;12.43;4.13;;;13.00;97.30;;;;;;5117833;27;20043;-54
2023/02/25 01:38:52;;;;;;;13.25;5.90;;;12.90;97.50;;;;;;5122387;27;20035;-52
2023/02/25 01:41:18;;;;;;;15.85;5.75;;;12.90;97.50;;;;;;5087936;28;20103;-53
2023/02/25 01:44:11;;;;;;;12.23;5.47;;;12.90;97.60;;;;;;5121785;27;20035;-54
2023/02/25 01:46:41;;;;;;;9.35;4.13;;;12.90;97.50;;;;;;5088202;28;20031;-51
2023/02/25 01:49:21;;;;;;;9.60;4.45;;;12.90;97.60;;;;;;5122692;27;20035;-53
2023/02/25 01:51:51;;;;;;;15.20;6.45;;;12.80;97.40;;;;;;5121351;27;20044;-54
2023/02/25 01:54:18;;;;;;;15.80;4.90;;;12.90;97.60;;;;;;5118783;27;20119;-51
2023/02/25 01:56:49;;;;;;;11.60;6.07;;;12.90;99.90;;;;;;5116154;28;20034;-54
2023/02/25 01:59:19;;;;;;;8.75;3.60;;;12.90;97.50;;;;;;5119391;28;20041;-51
2023/02/25 02:01:45;;;;;;;16.70;5.45;;;12.90;97.30;;;;;;5120124;28;20055;-53
2023/02/25 02:04:13;;;;;;;8.18;4.45;;;12.90;97.20;;;;;;5120576;28;20034;-53
2023/02/25 02:06:44;;;;;;;15.30;6.15;;;13.00;97.00;;;;;;5126772;28;20023;-52
2023/02/25 02:09:15;;;;;;;10.68;4.68;;;;;;;;;;5119290;28;20518;-54
2023/02/25 02:11:41;;;;;;;11.90;4.25;;;13.00;97.20;;;;;;5122664;28;20027;-55
2023/02/25 02:14:11;;;;;;;17.65;6.70;;;12.90;97.40;;;;;;5122166;28;20031;-54
2023/02/25 02:16:43;;;;;;;16.90;6.75;;;13.00;97.20;;;;;;5120284;28;20031;-53
2023/02/25 02:19:54;;;;;;;15.45;6.53;;;13.10;97.10;;;;;;5120881;28;20040;-54
2023/02/25 02:22:26;;;;;;;14.23;6.13;;;13.10;97.50;;;;;;5116407;28;20119;-53
2023/02/25 02:25:10;;;;;;;16.65;6.20;;;13.00;97.80;;;;;;5127687;28;20031;-56
2023/02/25 02:27:47;;;;;;;12.32;5.22;;;12.20;99.90;;;;;;5104150;28;20036;-55
2023/02/25 02:30:41;;;;;;;14.90;4.95;;;12.40;98.70;;;;;;5118963;28;20059;-55
2023/02/25 02:33:08;;;;;;;13.65;4.43;;;;;;;;;;5091739;28;20088;-54
2023/02/25 02:35:52;;;;;;;15.82;6.13;;;12.50;99.90;;;;;;5119038;27;20039;-54
2023/02/25 02:38:41;;;;;;;18.20;4.78;;;12.50;99.90;;;;;;5123858;27;20036;-54
2023/02/25 02:41:28;;;;;;;26.05;6.88;;;12.30;99.30;;;;;;5123086;27;20154;-53
2023/02/25 02:44:03;;;;;;;19.20;5.95;;;12.10;99.90;;;;;;5119470;27;20055;-52
2023/02/25 02:46:41;;;;;;;12.45;5.43;;;12.00;99.90;;;;;;5122502;27;20027;-54
2023/02/25 02:49:20;;;;;;;8.93;4.05;;;11.80;99.90;;;;;;5106495;27;20039;-55
2023/02/25 02:51:57;;;;;;;17.23;6.63;;;11.80;99.90;;;;;;5127153;27;20157;-55
2023/02/25 02:54:28;;;;;;;9.75;5.13;;;11.70;99.90;;;;;;5133873;27;20032;-52
2023/02/25 02:56:57;;;;;;;8.85;3.95;;;11.60;99.90;;;;;;5123015;27;20035;-53
2023/02/25 02:59:28;;;;;;;9.07;4.50;;;11.70;99.90;;;;;;5123597;27;20039;-51
2023/02/25 03:02:07;;;;;;;9.35;4.68;;;11.40;99.90;;;;;;5127984;27;20035;-55
2023/02/25 03:04:36;;;;;;;17.20;7.07;;;11.80;99.90;;;;;;5120419;27;20443;-52
2023/02/25 03:07:06;;;;;;;12.48;5.20;;;11.50;99.90;;;;;;5126167;27;20054;-54
2023/02/25 03:09:38;;;;;;;8.02;3.30;;;12.30;99.90;;;;;;5125607;27;20040;-54
2023/02/25 03:12:05;;;;;;;24.17;7.68;;;12.10;99.90;;;;;;5124052;27;20089;-55
2023/02/25 03:14:31;;;;;;;8.98;4.18;;;12.50;99.90;;;;;;5121852;27;20382;-55
2023/02/25 03:17:04;;;;;;;14.15;5.65;;;12.70;99.90;;;;;;5127282;27;20038;-53
2023/02/25 03:19:56;;;;;;;15.60;5.75;;;12.60;99.90;;;;;;5124733;27;20039;-54
2023/02/25 03:22:28;;;;;;;8.05;4.45;;;12.70;99.90;;;;;;5123524;27;20114;-53
2023/02/25 03:25:45;;;;;;;8.13;3.92;;;13.00;99.90;;;;;;5123972;27;20478;-52
2023/02/25 03:28:32;;;;;;;6.18;3.38;;;12.90;99.90;;;;;;5079004;28;20611;-53
2023/02/25 03:31:10;;;;;;;9.60;3.78;;;12.90;99.90;;;;;;5086070;28;20029;-54
2023/02/25 03:33:46;;;;;;;5.55;2.33;;;12.70;99.90;;;;;;5082667;28;20123;-55
2023/02/25 03:36:22;;;;;;;5.97;3.08;;;12.60;99.90;;;;;;5081542;28;20134;-53
2023/02/25 03:38:54;;;;;;;14.07;3.55;;;12.50;99.90;;;;;;5051501;28;20507;-54
2023/02/25 03:41:24;;;;;;;5.00;3.17;;;12.50;99.90;;;;;;5080685;28;20044;-55
2023/02/25 03:43:53;;;;;;;11.90;5.55;;;12.40;99.90;;;;;;5060918;28;20028;-52
2023/02/25 03:46:21;;;;;;;8.63;4.97;;;12.40;99.90;;;;;;5078736;28;20047;-53
2023/02/25 03:48:48;;;;;;;8.50;4.70;;;12.10;99.90;;;;;;5086132;28;20110;-51
2023/02/25 03:51:19;;;;;;;13.07;5.57;;;12.30;99.90;;;;;;5086040;28;20477;-55
2023/02/25 03:53:44;;;;;;;7.68;3.40;;;12.30;99.90;;;;;;5081114;28;20039;-52
2023/02/25 03:56:11;;;;;;;8.90;4.05;;;12.20;99.90;;;;;;5083167;28;20035;-53
2023/02/25 03:58:38;;;;;;;13.95;5.30;;;12.20;99.90;;;;;;5078226;28;20036;-54
2023/02/25 04:01:08;;;;;;;10.93;4.15;;;12.30;99.90;;;;;;5084279;28;20056;-51
2023/02/25 04:03:34;;;;;;;12.55;6.45;;;12.40;99.90;;;;;;5083833;28;20107;-52
2023/02/25 04:05:59;;;;;;;12.07;4.68;;;12.30;99.90;;;;;;5119824;27;20463;-55
2023/02/25 04:08:25;;;;;;;14.73;5.70;;;12.40;99.90;;;;;;5125353;27;20036;-54
2023/02/25 04:10:51;;;;;;;13.18;5.35;;;12.40;99.90;;;;;;5124801;27;20038;-52
2023/02/25 04:13:19;;;;;;;6.95;3.95;;;12.70;99.90;;;;;;5126022;27;20028;-53
2023/02/25 04:15:46;;;;;;;8.98;5.15;;;12.30;99.90;;;;;;5120847;27;20066;-52
2023/02/25 04:18:12;;;;;;;9.50;6.18;;;12.40;99.90;;;;;;5121501;27;20063;-53
2023/02/25 04:20:39;;;;;;;15.75;6.55;;;12.60;99.90;;;;;;5115964;27;20122;-51
2023/02/25 04:23:06;;;;;;;10.32;7.05;;;12.70;99.90;;;;;;5118803;27;20118;-52
2023/02/25 04:25:32;;;;;;;10.65;4.70;;;12.60;99.90;;;;;;5126908;27;20084;-54
2023/02/25 04:27:58;;;;;;;8.38;5.55;;;12.50;99.90;;;;;;5122735;27;20036;-55
2023/02/25 04:30:24;;;;;;;8.98;4.38;;;12.40;99.90;;;;;;5125131;27;20031;-52
2023/02/25 04:32:49;;;;;;;9.45;3.28;;;12.20;99.90;;;;;;5121307;27;20121;-53
2023/02/25 04:35:15;;;;;;;11.60;5.85;;;12.10;99.90;;;;;;5119735;27;20479;-52
2023/02/25 04:37:42;;;;;;;12.18;3.83;;;12.20;99.90;;;;;;5121541;27;20108;-54
2023/02/25 04:40:17;;;;;;;14.00;4.97;;;12.30;99.90;;;;;;5123316;27;20063;-53
2023/02/25 04:42:43;;;;;;;9.70;5.25;;;12.50;99.90;;;;;;5119256;27;20398;-53
2023/02/25 04:45:10;;;;;;;11.02;5.63;;;12.60;99.90;;;;;;5124784;27;20023;-54
2023/02/25 04:47:36;;;;;;;12.73;3.75;;;12.60;99.90;;;;;;5120419;27;20119;-52
2023/02/25 04:50:03;;;;;;;10.25;5.45;;;12.50;99.90;;;;;;5119767;27;20053;-52
2023/02/25 04:52:29;;;;;;;7.45;4.10;;;12.40;99.90;;;;;;5120439;27;20042;-52
2023/02/25 04:54:55;;;;;;;11.40;5.55;;;12.40;99.90;;;;;;5119389;27;20048;-53
2023/02/25 04:57:20;;;;;;;15.93;6.50;;;12.40;99.90;;;;;;5119865;27;20039;-51
2023/02/25 04:59:46;;;;;;;9.60;6.00;;;12.40;99.90;;;;;;5122804;27;20035;-53
2023/02/25 05:02:12;;;;;;;14.80;7.60;;;12.40;99.90;;;;;;5123876;27;20051;-52
2023/02/25 05:04:38;;;;;;;13.45;6.13;;;12.50;99.90;;;;;;5127513;27;20382;-51
2023/02/25 05:07:05;;;;;;;12.63;6.93;;;12.50;99.90;;;;;;5122637;27;20091;-52
2023/02/25 05:09:32;;;;;;;9.48;6.05;;;12.60;99.90;;;;;;5119916;27;20032;-53
2023/02/25 05:11:58;;;;;;;10.15;7.20;;;12.60;99.90;;;;;;5121364;27;20028;-52
2023/02/25 05:14:23;;;;;;;12.75;7.90;;;12.60;99.90;;;;;;5119689;27;20084;-53
2023/02/25 05:16:49;;;;;;;12.13;7.60;;;12.60;99.90;;;;;;5126278;27;20045;-55
2023/02/25 05:19:22;;;;;;;14.65;7.70;;;12.70;99.90;;;;;;5121195;27;20031;-51
2023/02/25 05:21:49;;;;;;;14.88;6.40;;;12.80;99.90;;;;;;5120448;27;20035;-52
2023/02/25 05:24:16;;;;;;;14.45;7.22;;;12.80;99.90;;;;;;5120767;27;20029;-53
2023/02/25 05:26:41;;;;;;;14.35;7.00;;;12.90;99.90;;;;;;5121150;27;20034;-54
2023/02/25 05:29:07;;;;;;;15.55;7.63;;;12.90;99.90;;;;;;5121103;27;20039;-51
2023/02/25 05:31:34;;;;;;;15.05;7.40;;;12.90;99.90;;;;;;5119626;27;20023;-53
2023/02/25 05:33:59;;;;;;;12.60;7.50;;;12.80;99.90;;;;;;5123745;27;20034;-52
2023/02/25 05:36:25;;;;;;;15.68;6.70;;;12.80;99.90;;;;;;5122711;27;20035;-53
2023/02/25 05:38:55;;;;;;;11.60;6.13;;;12.90;99.90;;;;;;5119182;27;20035;-52
2023/02/25 05:41:21;;;;;;;10.10;5.68;;;12.90;99.90;;;;;;5118676;27;20126;-53
2023/02/25 05:43:47;;;;;;;9.57;5.65;;;12.90;99.90;;;;;;5120274;27;20122;-54
2023/02/25 05:46:14;;;;;;;15.63;6.50;;;12.80;99.90;;;;;;5119590;27;20039;-52
2023/02/25 05:48:41;;;;;;;13.65;5.72;;;12.80;99.90;;;;;;5122816;27;20038;-54
2023/02/25 05:51:10;;;;;;;10.77;6.47;;;12.80;99.90;;;;;;5118667;27;20043;-52
2023/02/25 05:53:36;;;;;;;11.68;6.22;;;12.80;99.90;;;;;;5121239;27;20035;-55
2023/02/25 05:56:04;;;;;;;8.18;5.20;;;12.60;99.90;;;;;;5121673;27;20546;-52
2023/02/25 05:58:30;;;;;;;11.43;5.20;;;12.70;99.90;;;;;;5118642;28;20027;-53
2023/02/25 06:00:56;;;;;;;15.73;7.50;;;12.70;99.90;;;;;;5126801;28;20047;-52
2023/02/25 06:03:22;;;;;;;16.83;8.07;;;12.70;99.90;;;;;;5125877;28;20034;-52
2023/02/25 06:05:47;;;;;;;10.23;4.78;;;12.80;99.90;;;;;;5123399;28;20031;-52
2023/02/25 06:08:13;;;;;;;11.27;5.93;;;12.80;99.90;;;;;;5124762;27;20023;-53
2023/02/25 06:10:39;;;;;;;12.93;5.75;;;12.90;99.90;;;;;;5129076;27;20432;-53
2023/02/25 06:13:07;;;;;;;32.75;15.25;;;12.80;99.90;;;;;;5126795;27;20056;-53
2023/02/25 06:15:32;;;;;;;14.13;6.93;;;12.90;99.90;;;;;;5132892;27;20024;-52
2023/02/25 06:17:58;;;;;;;16.27;9.52;;;12.90;99.90;;;;;;5132356;27;20035;-52
2023/02/25 06:20:24;;;;;;;7.80;5.13;;;13.00;99.90;;;;;;5124410;27;20027;-54
2023/02/25 06:22:51;;;;;;;13.07;5.28;;;13.00;99.90;;;;;;5127469;27;20027;-53
2023/02/25 06:25:17;;;;;;;6.95;3.63;;;13.00;99.90;;;;;;5119472;27;20114;-52
2023/02/25 06:27:42;;;;;;;10.98;4.30;;;13.00;99.90;;;;;;5119253;27;20032;-54
2023/02/25 06:30:09;;;;;;;14.13;7.53;;;13.00;99.90;;;;;;5121449;27;20032;-54
2023/02/25 06:32:35;;;;;;;10.23;5.20;;;13.10;99.90;;;;;;5085687;27;20048;-54
2023/02/25 06:35:00;;;;;;;10.35;5.45;;;13.00;99.90;;;;;;5127343;27;20494;-52
2023/02/25 06:37:26;;;;;;;15.20;5.15;;;13.00;99.90;;;;;;5125928;27;20035;-53
2023/02/25 06:39:52;;;;;;;10.80;4.20;;;13.00;99.90;;;;;;5142636;27;20048;-52
2023/02/25 06:42:18;;;;;;;12.50;5.95;;;13.10;99.90;;;;;;5127628;27;20019;-53
2023/02/25 06:44:44;;;;;;;6.20;4.28;;;13.10;99.90;;;;;;5113972;27;20084;-53
2023/02/25 06:47:10;;;;;;;9.02;4.57;;;13.10;99.90;;;;;;5132105;27;20019;-52
2023/02/25 06:49:36;;;;;;;13.63;5.50;;;13.20;99.90;;;;;;5128116;27;20092;-53
2023/02/25 06:52:02;;;;;;;14.38;7.57;;;13.20;99.90;;;;;;5127982;27;20094;-53
2023/02/25 06:54:27;;;;;;;9.38;5.57;;;13.20;99.90;;;;;;5125615;27;20032;-51
2023/02/25 06:56:54;;;;;;;11.27;4.50;;;13.10;99.90;;;;;;5128385;27;20031;-53
2023/02/25 06:59:20;;;;;;;11.52;6.22;;;13.10;99.90;;;;;;5127449;27;20035;-54
2023/02/25 07:01:46;;;;;;;14.48;7.85;;;13.10;99.90;;;;;;5127304;27;20120;-53
2023/02/25 07:04:18;;;;;;;15.18;7.10;;;13.20;99.90;;;;;;5132639;27;20466;-51
2023/02/25 07:06:44;;;;;;;12.98;6.25;;;13.20;99.90;;;;;;5124079;27;20062;-52
2023/02/25 07:09:09;;;;;;;12.38;7.28;;;13.20;99.90;;;;;;5125886;27;20092;-55
2023/02/25 07:11:35;;;;;;;13.52;7.03;;;13.20;99.90;;;;;;5124425;27;20024;-51
2023/02/25 07:14:05;;;;;;;14.50;9.90;;;13.30;99.90;;;;;;5119804;27;20395;-54
2023/02/25 07:16:33;;;;;;;20.50;9.85;;;13.30;99.90;;;;;;5117917;27;20513;-52
2023/02/25 07:19:01;;;;;;;15.45;9.77;;;13.40;99.90;;;;;;5119964;27;20041;-54
2023/02/25 07:21:29;;;;;;;15.10;10.63;;;13.30;99.90;;;;;;5106579;28;20059;-53
2023/02/25 07:23:55;;;;;;;21.42;15.20;;;13.00;99.90;;;;;;5116385;27;20035;-52
2023/02/25 07:26:27;;;;;;;20.60;14.68;;;13.00;99.90;;;;;;5123779;27;20122;-52
2023/02/25 07:28:59;;;;;;;25.70;14.57;;;12.90;99.90;;;;;;5127371;27;20403;-56
2023/02/25 07:31:25;;;;;;;;;;;13.00;99.90;;;;;;5122707;27;20027;-53
2023/02/25 07:33:53;;;;;;;28.38;13.80;;;13.00;99.90;;;;;;5127181;27;19914;-54
2023/02/25 07:36:19;;;;;;;29.23;14.18;;;13.00;99.90;;;;;;5128460;27;20110;-52
2023/02/25 07:38:47;;;;;;;34.72;17.00;;;13.00;99.90;;;;;;5130060;27;20172;-52
2023/02/25 07:41:15;;;;;;;26.83;14.65;;;13.00;99.90;;;;;;5124075;27;20077;-54
2023/02/25 07:43:41;;;;;;;22.50;13.15;;;13.10;99.90;;;;;;5124325;27;20490;-55
2023/02/25 07:46:08;;;;;;;23.00;14.65;;;13.10;99.90;;;;;;5118390;27;20486;-53
2023/02/25 07:48:34;;;;;;;22.13;13.48;;;13.30;99.90;;;;;;5118902;27;20436;-58
2023/02/25 07:51:18;;;;;;;24.90;14.02;;;13.30;99.90;;;;;;5118416;27;20036;-57
2023/02/25 07:53:45;;;;;;;26.10;16.48;;;13.30;99.90;;;;;;5097970;28;20047;-62
2023/02/25 07:56:11;;;;;;;22.95;15.60;;;13.40;99.90;;;;;;5108150;28;20043;-59
2023/02/25 07:58:38;;;;;;;24.67;15.95;;;13.30;99.90;;;;;;5103964;28;20043;-62
2023/02/25 08:01:23;;;;;;;26.25;13.40;;;13.30;99.90;;;;;;5109055;28;20458;-60
2023/02/25 08:03:51;;;;;;;22.80;13.52;;;13.30;99.90;;;;;;5094952;28;20458;-59
2023/02/25 08:06:17;;;;;;;24.73;11.35;;;13.40;99.90;;;;;;5098128;28;20047;-58
2023/02/25 08:08:43;;;;;;;26.77;13.00;;;13.40;99.90;;;;;;5099470;28;20404;-59
2023/02/25 08:11:11;;;;;;;21.88;12.25;;;13.40;99.90;;;;;;5108944;28;20032;-58
2023/02/25 08:13:37;;;;;;;18.50;10.68;;;13.40;99.90;;;;;;5100275;28;20031;-59
2023/02/25 08:16:07;;;;;;;17.88;13.10;;;13.50;99.90;;;;;;5107887;28;20050;-59
2023/02/25 08:18:33;;;;;;;21.92;9.85;;;13.50;99.90;;;;;;5103805;28;20040;-60
2023/02/25 08:20:59;;;;;;;27.90;11.13;;;13.30;99.90;;;;;;5105892;28;20641;-57
2023/02/25 08:23:25;;;;;;;18.45;12.43;;;13.30;99.90;;;;;;5100346;28;20118;-58
2023/02/25 08:25:55;;;;;;;19.60;10.55;;;13.30;99.90;;;;;;5124176;27;20040;-59
2023/02/25 08:28:22;;;;;;;16.88;10.77;;;13.40;99.90;;;;;;5120968;27;20027;-59
2023/02/25 08:30:49;;;;;;;20.00;10.65;;;13.40;99.90;;;;;;5124235;27;20484;-58
2023/02/25 08:33:15;;;;;;;18.15;10.25;;;13.30;99.90;;;;;;5121026;27;20110;-59
2023/02/25 08:35:41;;;;;;;15.35;9.07;;;13.30;99.90;;;;;;5126334;27;20112;-59
2023/02/25 08:38:08;;;;;;;18.40;8.90;;;13.20;99.90;;;;;;5127701;27;20040;-59
2023/02/25 08:40:35;;;;;;;32.97;22.70;;;13.30;99.90;;;;;;5122206;27;20487;-60
2023/02/25 08:43:00;;;;;;;31.05;21.80;;;13.10;99.90;;;;;;5132234;27;20038;-59
2023/02/25 08:45:27;;;;;;;26.27;20.85;;;13.30;99.90;;;;;;5094943;27;20035;-59
2023/02/25 08:47:53;;;;;;;22.98;15.00;;;13.40;99.90;;;;;;5132670;27;20053;-60
2023/02/25 08:50:19;;;;;;;35.17;17.70;;;13.60;99.90;;;;;;5132610;27;20482;-58
2023/02/25 08:52:45;;;;;;;18.33;9.05;;;13.80;99.90;;;;;;5132431;27;20110;-59
2023/02/25 08:55:14;;;;;;;17.63;11.10;;;13.90;99.90;;;;;;5132182;27;20106;-59
2023/02/25 08:57:41;;;;;;;17.55;9.60;;;13.90;99.90;;;;;;5134456;27;20033;-58
2023/02/25 09:00:08;;;;;;;18.60;11.32;;;14.10;99.90;;;;;;5132283;27;20039;-60
2023/02/25 09:02:34;;;;;;;21.55;14.27;;;14.10;99.90;;;;;;5132057;27;20023;-58
2023/02/25 09:05:00;;;;;;;72.15;42.10;;;;;;;;;;5114365;27;20436;-58
2023/02/25 09:07:26;;;;;;;32.22;19.80;;;14.40;99.90;;;;;;5134121;27;20026;-59
2023/02/25 09:09:52;;;;;;;34.50;21.10;;;14.60;99.90;;;;;;5132014;27;20027;-58
2023/02/25 09:12:18;;;;;;;45.42;25.17;;;14.70;99.90;;;;;;5130040;27;20026;-58
2023/02/25 09:14:44;;;;;;;26.38;16.92;;;;;;;;;;5105598;28;20040;-59
2023/02/25 09:17:09;;;;;;;26.38;15.27;;;15.00;99.90;;;;;;5125985;27;20031;-58
2023/02/25 09:19:37;;;;;;;26.63;16.42;;;14.90;99.90;;;;;;5124840;27;20036;-58
2023/02/25 09:22:07;;;;;;;25.30;15.25;;;14.80;99.90;;;;;;5123041;27;20028;-59
2023/02/25 09:24:33;;;;;;;56.92;34.22;;;14.80;99.90;;;;;;5116740;27;20036;-59
2023/02/25 09:27:06;;;;;;;38.60;24.42;;;14.80;99.90;;;;;;5125155;27;20030;-59
2023/02/25 09:29:39;;;;;;;25.58;15.63;;;14.90;99.90;;;;;;5124142;27;20039;-58
2023/02/25 09:32:06;;;;;;;19.90;10.15;;;15.00;99.90;;;;;;5123134;27;20027;-59
2023/02/25 09:34:35;;;;;;;16.88;10.68;;;14.70;99.90;;;;;;5124531;27;20032;-58
2023/02/25 09:37:03;;;;;;;19.00;11.18;;;14.70;99.90;;;;;;5122592;27;20471;-59
2023/02/25 09:39:29;;;;;;;19.20;11.95;;;14.70;99.90;;;;;;5130741;27;20417;-59
2023/02/25 09:42:06;;;;;;;20.23;12.80;;;14.70;99.90;;;;;;5124811;27;20027;-60
2023/02/25 09:44:36;;;;;;;25.90;13.13;;;14.70;99.90;;;;;;5124571;27;20372;-59
2023/02/25 09:47:08;;;;;;;19.38;13.07;;;14.60;99.90;;;;;;5125094;27;20114;-60
2023/02/25 09:49:58;;;;;;;29.05;14.60;;;14.50;99.90;;;;;;5123882;27;20114;-58
2023/02/25 09:52:53;;;;;;;22.08;13.27;;;14.50;99.90;;;;;;5115737;27;20498;-59
2023/02/25 09:55:27;;;;;;;21.15;12.50;;;14.70;99.90;;;;;;5119566;27;20031;-59
2023/02/25 09:58:07;;;;;;;21.15;12.75;;;14.80;99.90;;;;;;5125542;28;20024;-59
2023/02/25 10:00:55;;;;;;;29.27;15.52;;;15.10;99.90;;;;;;5124614;28;20043;-59
2023/02/25 10:03:31;;;;;;;25.75;15.32;;;15.20;99.90;;;;;;5122431;28;20126;-58
2023/02/25 10:06:23;;;;;;;25.65;14.38;;;15.10;99.90;;;;;;5116422;28;20036;-59
2023/02/25 10:09:01;;;;;;;22.38;12.73;;;15.30;99.90;;;;;;5049826;28;20133;-58
2023/02/25 10:11:41;;;;;;;21.83;12.60;;;16.00;99.90;;;;;;5038738;28;20041;-60
2023/02/25 10:14:26;;;;;;;33.83;19.90;;;;;;;;;;5048472;28;20151;-59
2023/02/25 10:17:21;;;;;;;23.02;13.77;;;15.90;99.90;;;;;;5049907;28;20025;-58
2023/02/25 10:20:07;;;;;;;27.70;17.40;;;15.90;99.90;;;;;;4990379;28;20089;-58
2023/02/25 10:22:57;;;;;;;26.17;15.65;;;16.10;99.90;;;;;;4990586;28;20486;-58
2023/02/25 10:25:29;;;;;;;22.20;15.95;;;16.50;99.90;;;;;;4990610;28;20022;-58
2023/02/25 10:28:00;;;;;;;28.70;18.67;;;16.80;99.90;;;;;;4991422;28;20042;-58
2023/02/25 10:30:31;;;;;;;29.23;17.63;;;;;;;;;;4990653;28;20046;-59
2023/02/25 10:33:04;;;;;;;29.05;18.25;;;17.10;99.90;;;;;;4989675;28;20111;-58
2023/02/25 10:35:36;;;;;;;36.10;19.25;;;17.10;99.90;;;;;;4988985;28;20030;-57
2023/02/25 10:38:02;;;;;;;36.28;24.80;;;17.30;99.90;;;;;;4990775;28;20034;-60
2023/02/25 10:40:28;;;;;;;27.95;17.48;;;17.50;99.90;;;;;;4989450;28;20050;-58
2023/02/25 10:42:59;;;;;;;24.00;15.82;;;17.40;99.90;;;;;;4990481;28;20046;-58
2023/02/25 10:45:29;;;;;;;25.92;14.57;;;17.30;99.90;;;;;;4997361;28;20393;-59
2023/02/25 10:48:05;;;;;;;20.88;14.70;;;17.20;99.90;;;;;;5019813;28;20068;-58
2023/02/25 10:50:31;;;;;;;26.95;13.85;;;17.10;99.90;;;;;;5017739;28;20073;-57
2023/02/25 10:52:59;;;;;;;25.38;15.57;;;17.10;99.90;;;;;;5023084;28;20167;-58
2023/02/25 10:55:50;;;;;;;24.67;15.20;;;17.20;99.90;;;;;;5004775;28;20071;-60
2023/02/25 10:58:37;;;;;;;33.08;17.48;;;17.00;99.90;;;;;;5128698;27;20033;-58
2023/02/25 11:01:08;;;;;;;24.33;16.13;;;17.20;99.90;;;;;;5117886;27;20044;-57
2023/02/25 11:03:45;;;;;;;25.60;16.67;;;17.20;99.90;;;;;;5125936;27;20538;-56
2023/02/25 11:06:35;;;;;;;54.67;36.60;;;17.30;99.90;;;;;;5119794;27;20035;-57
2023/02/25 11:09:05;;;;;;;26.45;16.73;;;17.40;99.90;;;;;;5126469;27;20024;-57
2023/02/25 11:11:35;;;;;;;33.50;21.25;;;17.40;99.90;;;;;;5124859;27;20072;-57
2023/02/25 11:14:15;;;;;;;46.85;30.65;;;;;;;;;;5125470;27;20040;-57
2023/02/25 11:16:43;;;;;;;46.95;32.72;;;17.60;99.90;;;;;;5121856;27;20038;-56
2023/02/25 11:19:15;;;;;;;50.13;32.08;;;;;;;;;;5125743;27;20042;-60
2023/02/25 11:21:41;;;;;;;;;;;17.10;99.90;;;;;;5125716;27;20035;-60
2023/02/25 11:24:14;;;;;;;39.55;27.27;;;;;;;;;;5128194;27;20394;-56
2023/02/25 11:26:42;;;;;;;40.67;25.98;;;;;;;;;;5132239;27;20023;-58
2023/02/25 11:29:12;;;;;;;38.15;25.95;;;16.80;99.90;;;;;;5131045;27;20077;-56
2023/02/25 11:31:40;;;;;;;37.13;25.33;;;16.80;99.90;;;;;;5134043;27;20109;-59
2023/02/25 11:34:22;;;;;;;37.40;25.92;;;16.80;99.90;;;;;;5135764;27;20075;-59
2023/02/25 11:36:48;;;;;;;38.15;24.48;;;16.80;99.90;;;;;;5134951;27;20011;-59
2023/02/25 11:39:23;;;;;;;33.40;22.98;;;16.90;99.90;;;;;;5134643;27;20021;-59
2023/02/25 11:41:52;;;;;;;40.60;24.23;;;17.00;99.90;;;;;;5111201;27;20070;-58
2023/02/25 11:44:23;;;;;;;47.28;28.23;;;16.60;99.90;;;;;;5078921;28;20059;-61
2023/02/25 11:46:55;;;;;;;14.15;7.60;;;;;;;;;;5110933;28;20040;-59
2023/02/25 11:49:28;;;;;;;17.30;11.23;;;15.20;99.90;;;;;;5106152;28;20035;-58
2023/02/25 11:52:22;;;;;;;12.05;8.73;;;14.60;99.90;;;;;;5101253;28;20542;-60
2023/02/25 11:55:03;;;;;;;10.23;6.18;;;14.30;99.90;;;;;;5100934;28;20426;-58
2023/02/25 11:57:47;;;;;;;7.07;3.08;;;;;;;;;;5100744;28;20027;-59
2023/02/25 12:00:46;;;;;;;14.07;5.35;;;;;;;;;;5054525;28;20053;-57
2023/02/25 12:03:15;;;;;;;13.82;7.45;;;;;;;;;;4991421;28;20065;-61
2023/02/25 12:05:59;;;;;;;10.85;6.47;;;;;;;;;;4991715;28;20081;-58
2023/02/25 12:08:31;;;;;;;9.93;5.97;;;;;;;;;;4991961;28;20047;-58
2023/02/25 12:10:57;;;;;;;;;;;;;;;;;;4992122;28;20046;-60
2023/02/25 12:13:42;;;;;;;7.47;5.07;;;;;;;;;;4991364;28;19960;-60
2023/02/25 12:16:35;;;;;;;7.38;4.53;;;12.60;99.90;;;;;;5008125;28;20042;-58
2023/02/25 12:19:13;;;;;;;7.90;4.63;;;;;;;;;;5010483;28;20042;-58
2023/02/25 12:21:57;;;;;;;5.25;3.40;;;;;;;;;;5010735;28;20493;-57
2023/02/25 12:24:55;;;;;;;6.20;3.38;;;12.30;99.90;;;;;;5010584;28;20041;-58
2023/02/25 12:27:48;;;;;;;4.85;2.95;;;12.30;99.90;;;;;;5010808;28;20033;-57
2023/02/25 12:30:25;;;;;;;;;;;12.30;99.90;;;;;;5014284;28;20131;-59
2023/02/25 12:32:56;;;;;;;3.88;2.60;;;12.20;99.90;;;;;;5050125;28;19915;-59
2023/02/25 12:35:51;;;;;;;6.00;3.25;;;12.00;99.90;;;;;;5049475;28;20025;-59
2023/02/25 12:38:17;;;;;;;6.18;4.20;;;11.80;99.90;;;;;;5027752;28;20086;-59
2023/02/25 12:41:03;;;;;;;6.90;4.90;;;11.60;99.90;;;;;;5033721;28;20513;-58
2023/02/25 12:43:49;;;;;;;7.35;4.43;;;;;;;;;;5049947;28;20132;-59
2023/02/25 12:46:15;;;;;;;9.85;6.15;;;;;;;;;;5039459;28;20344;-60
2023/02/25 12:48:59;;;;;;;7.60;5.03;;;;;;;;;;5049675;28;20044;-61
2023/02/25 12:51:44;;;;;;;8.77;6.13;;;;;;;;;;5043009;28;20547;-59
2023/02/25 12:54:25;;;;;;;11.95;7.25;;;;;;;;;;5048238;28;20021;-60
2023/02/25 12:57:11;;;;;;;7.45;4.85;;;;;;;;;;5050007;28;20076;-60
2023/02/25 13:00:12;;;;;;;10.25;6.18;;;;;;;;;;5049829;28;20167;-58
2023/02/25 13:02:41;;;;;;;9.90;5.55;;;;;;;;;;5045381;28;20497;-59
2023/02/25 13:05:25;;;;;;;9.05;5.75;;;;;;;;;;5039418;28;20049;-59